sensor_id;sensor_type;location;lat;lon;timestamp;temperature;humidity
20158;DHT22;10239;56.820;24.416;2023-07-13T00:02:25;19.10;99.90
20158;DHT22;10239;56.820;24.416;2023-07-13T00:04:54;19.20;99.90
20158;DHT22;10239;56.820;24.416;2023-07-13T00:07:22;19.20;99.90
20158;DHT22;10239;56.820;24.416;2023-07-13T00:09:51;19.30;99.90
20158;DHT22;10239;56.820;24.416;2023-07-13T00:12:38;19.20;99.90
20158;DHT22;10239;56.820;24.416;2023-07-13T00:15:35;19.40;99.90
20158;DHT22;10239;56.820;24.416;2023-07-13T00:18:03;19.50;99.90
20158;DHT22;10239;56.820;24.416;2023-07-13T00:20:30;19.60;99.90
20158;DHT22;10239;56.820;24.416;2023-07-13T00:22:58;19.60;99.90
20158;DHT22;10239;56.820;24.416;2023-07-13T00:25:26;19.60;99.90
20158;DHT22;10239;56.820;24.416;2023-07-13T00:27:56;19.70;99.90
20158;DHT22;10239;56.820;24.416;2023-07-13T00:30:23;19.80;99.90
20158;DHT22;10239;56.820;24.416;2023-07-13T00:32:51;19.70;99.90
20158;DHT22;10239;56.820;24.416;2023-07-13T00:35:35;19.60;99.90
20158;DHT22;10239;56.820;24.416;2023-07-13T00:38:02;19.30;99.90
20158;DHT22;10239;56.820;24.416;2023-07-13T00:40:30;19.30;99.90
20158;DHT22;10239;56.820;24.416;2023-07-13T00:42:59;19.20;99.90
20158;DHT22;10239;56.820;24.416;2023-07-13T00:47:55;19.10;99.90
20158;DHT22;10239;56.820;24.416;2023-07-13T00:50:24;19.20;99.90
20158;DHT22;10239;56.820;24.416;2023-07-13T00:52:54;19.20;99.90
20158;DHT22;10239;56.820;24.416;2023-07-13T00:55:22;19.40;99.90
20158;DHT22;10239;56.820;24.416;2023-07-13T00:57:50;19.30;99.90
20158;DHT22;10239;56.820;24.416;2023-07-13T01:00:19;19.40;99.90
20158;DHT22;10239;56.820;24.416;2023-07-13T01:02:49;19.40;99.90
20158;DHT22;10239;56.820;24.416;2023-07-13T01:05:19;19.20;99.90
20158;DHT22;10239;56.820;24.416;2023-07-13T01:07:49;19.30;99.90
20158;DHT22;10239;56.820;24.416;2023-07-13T01:10:22;19.30;99.90
20158;DHT22;10239;56.820;24.416;2023-07-13T01:12:52;19.40;99.90
20158;DHT22;10239;56.820;24.416;2023-07-13T01:15:43;19.40;99.90
20158;DHT22;10239;56.820;24.416;2023-07-13T01:18:17;19.40;99.90
20158;DHT22;10239;56.820;24.416;2023-07-13T01:21:04;19.20;99.90
20158;DHT22;10239;56.820;24.416;2023-07-13T01:23:32;19.30;99.90
20158;DHT22;10239;56.820;24.416;2023-07-13T01:26:00;19.20;99.90
20158;DHT22;10239;56.820;24.416;2023-07-13T01:28:29;19.20;99.90
20158;DHT22;10239;56.820;24.416;2023-07-13T01:30:58;19.20;99.90
20158;DHT22;10239;56.820;24.416;2023-07-13T01:33:26;19.10;99.90
20158;DHT22;10239;56.820;24.416;2023-07-13T01:35:54;19.20;99.90
20158;DHT22;10239;56.820;24.416;2023-07-13T01:38:25;19.20;99.90
20158;DHT22;10239;56.820;24.416;2023-07-13T01:40:53;19.30;99.90
20158;DHT22;10239;56.820;24.416;2023-07-13T01:43:23;19.40;99.90
20158;DHT22;10239;56.820;24.416;2023-07-13T01:45:51;19.40;99.90
20158;DHT22;10239;56.820;24.416;2023-07-13T01:48:19;19.40;99.90
20158;DHT22;10239;56.820;24.416;2023-07-13T01:50:48;19.60;99.90
20158;DHT22;10239;56.820;24.416;2023-07-13T01:53:16;19.40;99.90
20158;DHT22;10239;56.820;24.416;2023-07-13T01:55:43;19.30;99.90
20158;DHT22;10239;56.820;24.416;2023-07-13T01:58:11;19.30;99.90
20158;DHT22;10239;56.820;24.416;2023-07-13T02:00:39;19.40;99.90
20158;DHT22;10239;56.820;24.416;2023-07-13T02:03:06;19.40;99.90
20158;DHT22;10239;56.820;24.416;2023-07-13T02:05:34;19.40;99.90
20158;DHT22;10239;56.820;24.416;2023-07-13T02:08:02;19.40;99.90
20158;DHT22;10239;56.820;24.416;2023-07-13T02:10:30;19.50;99.90
20158;DHT22;10239;56.820;24.416;2023-07-13T02:12:58;19.60;99.90
20158;DHT22;10239;56.820;24.416;2023-07-13T02:15:26;19.50;99.90
20158;DHT22;10239;56.820;24.416;2023-07-13T02:17:54;19.50;99.90
20158;DHT22;10239;56.820;24.416;2023-07-13T02:20:22;19.50;99.90
20158;DHT22;10239;56.820;24.416;2023-07-13T02:22:50;19.50;99.90
20158;DHT22;10239;56.820;24.416;2023-07-13T02:25:20;19.50;99.90
20158;DHT22;10239;56.820;24.416;2023-07-13T02:27:48;19.40;99.90
20158;DHT22;10239;56.820;24.416;2023-07-13T02:30:16;19.50;99.90
20158;DHT22;10239;56.820;24.416;2023-07-13T02:32:44;19.60;99.90
20158;DHT22;10239;56.820;24.416;2023-07-13T02:35:18;19.60;99.90
20158;DHT22;10239;56.820;24.416;2023-07-13T02:37:46;19.60;99.90
20158;DHT22;10239;56.820;24.416;2023-07-13T02:40:13;19.60;99.90
20158;DHT22;10239;56.820;24.416;2023-07-13T02:42:41;19.60;99.90
20158;DHT22;10239;56.820;24.416;2023-07-13T02:45:09;19.70;99.90
20158;DHT22;10239;56.820;24.416;2023-07-13T02:47:36;19.70;99.90
20158;DHT22;10239;56.820;24.416;2023-07-13T02:50:04;19.60;99.90
20158;DHT22;10239;56.820;24.416;2023-07-13T02:52:32;19.50;99.90
20158;DHT22;10239;56.820;24.416;2023-07-13T02:55:00;19.50;99.90
20158;DHT22;10239;56.820;24.416;2023-07-13T02:57:28;19.20;99.90
20158;DHT22;10239;56.820;24.416;2023-07-13T02:59:55;19.30;99.90
20158;DHT22;10239;56.820;24.416;2023-07-13T03:02:23;19.20;99.90
20158;DHT22;10239;56.820;24.416;2023-07-13T03:04:50;19.30;99.90
20158;DHT22;10239;56.820;24.416;2023-07-13T03:07:18;19.30;99.90
20158;DHT22;10239;56.820;24.416;2023-07-13T03:09:48;19.40;99.90
20158;DHT22;10239;56.820;24.416;2023-07-13T03:12:15;19.60;99.90
20158;DHT22;10239;56.820;24.416;2023-07-13T03:14:43;19.70;99.90
20158;DHT22;10239;56.820;24.416;2023-07-13T03:17:10;19.60;99.90
20158;DHT22;10239;56.820;24.416;2023-07-13T03:19:40;19.70;99.90
20158;DHT22;10239;56.820;24.416;2023-07-13T03:22:08;19.90;99.90
20158;DHT22;10239;56.820;24.416;2023-07-13T03:24:37;20.00;99.90
20158;DHT22;10239;56.820;24.416;2023-07-13T03:27:07;20.20;99.90
20158;DHT22;10239;56.820;24.416;2023-07-13T03:29:38;20.20;99.90
20158;DHT22;10239;56.820;24.416;2023-07-13T03:32:06;20.40;99.90
20158;DHT22;10239;56.820;24.416;2023-07-13T03:34:34;20.40;99.90
20158;DHT22;10239;56.820;24.416;2023-07-13T03:37:02;20.30;99.90
20158;DHT22;10239;56.820;24.416;2023-07-13T03:39:29;19.90;99.90
20158;DHT22;10239;56.820;24.416;2023-07-13T03:41:58;19.90;99.90
20158;DHT22;10239;56.820;24.416;2023-07-13T03:44:27;20.00;99.90
20158;DHT22;10239;56.820;24.416;2023-07-13T03:46:56;20.00;99.90
20158;DHT22;10239;56.820;24.416;2023-07-13T03:49:24;19.90;99.90
20158;DHT22;10239;56.820;24.416;2023-07-13T03:51:51;19.90;99.90
20158;DHT22;10239;56.820;24.416;2023-07-13T03:54:20;19.80;99.90
20158;DHT22;10239;56.820;24.416;2023-07-13T03:56:48;19.90;99.90
20158;DHT22;10239;56.820;24.416;2023-07-13T03:59:16;20.10;99.90
20158;DHT22;10239;56.820;24.416;2023-07-13T04:01:45;20.30;99.90
20158;DHT22;10239;56.820;24.416;2023-07-13T04:04:13;20.30;99.90
20158;DHT22;10239;56.820;24.416;2023-07-13T04:06:40;20.40;99.90
20158;DHT22;10239;56.820;24.416;2023-07-13T04:09:11;20.60;99.90
20158;DHT22;10239;56.820;24.416;2023-07-13T04:11:39;20.70;99.90
20158;DHT22;10239;56.820;24.416;2023-07-13T04:14:06;20.80;99.90
20158;DHT22;10239;56.820;24.416;2023-07-13T04:16:38;20.90;99.90
20158;DHT22;10239;56.820;24.416;2023-07-13T04:19:07;20.90;99.90
20158;DHT22;10239;56.820;24.416;2023-07-13T04:21:35;21.10;99.90
20158;DHT22;10239;56.820;24.416;2023-07-13T04:24:03;21.20;99.90
20158;DHT22;10239;56.820;24.416;2023-07-13T04:26:31;21.20;99.90
20158;DHT22;10239;56.820;24.416;2023-07-13T04:28:59;21.40;99.90
20158;DHT22;10239;56.820;24.416;2023-07-13T04:31:26;21.40;99.90
20158;DHT22;10239;56.820;24.416;2023-07-13T04:33:54;21.40;99.90
20158;DHT22;10239;56.820;24.416;2023-07-13T04:36:21;21.60;99.90
20158;DHT22;10239;56.820;24.416;2023-07-13T04:38:49;21.60;99.90
20158;DHT22;10239;56.820;24.416;2023-07-13T04:41:17;21.70;99.90
20158;DHT22;10239;56.820;24.416;2023-07-13T04:43:44;21.70;99.90
20158;DHT22;10239;56.820;24.416;2023-07-13T04:46:14;21.60;99.90
20158;DHT22;10239;56.820;24.416;2023-07-13T04:48:42;21.50;99.90
20158;DHT22;10239;56.820;24.416;2023-07-13T04:51:10;21.60;99.90
20158;DHT22;10239;56.820;24.416;2023-07-13T04:53:38;21.60;99.90
20158;DHT22;10239;56.820;24.416;2023-07-13T04:56:05;21.60;99.90
20158;DHT22;10239;56.820;24.416;2023-07-13T04:58:33;21.60;99.90
20158;DHT22;10239;56.820;24.416;2023-07-13T05:01:05;21.60;99.90
20158;DHT22;10239;56.820;24.416;2023-07-13T05:03:33;21.80;99.90
20158;DHT22;10239;56.820;24.416;2023-07-13T05:06:04;21.90;99.90
20158;DHT22;10239;56.820;24.416;2023-07-13T05:08:32;21.90;99.90
20158;DHT22;10239;56.820;24.416;2023-07-13T05:11:01;21.90;99.90
20158;DHT22;10239;56.820;24.416;2023-07-13T05:13:30;22.00;99.90
20158;DHT22;10239;56.820;24.416;2023-07-13T05:15:59;22.00;99.90
20158;DHT22;10239;56.820;24.416;2023-07-13T05:18:28;22.00;99.90
20158;DHT22;10239;56.820;24.416;2023-07-13T05:21:02;22.10;99.90
20158;DHT22;10239;56.820;24.416;2023-07-13T05:23:32;22.00;99.90
20158;DHT22;10239;56.820;24.416;2023-07-13T05:26:00;22.10;99.90
20158;DHT22;10239;56.820;24.416;2023-07-13T05:28:29;22.20;99.90
20158;DHT22;10239;56.820;24.416;2023-07-13T05:30:57;22.20;99.90
20158;DHT22;10239;56.820;24.416;2023-07-13T05:33:25;22.20;99.90
20158;DHT22;10239;56.820;24.416;2023-07-13T05:35:53;22.40;99.90
20158;DHT22;10239;56.820;24.416;2023-07-13T05:38:21;22.40;99.90
20158;DHT22;10239;56.820;24.416;2023-07-13T05:40:50;22.60;99.90
20158;DHT22;10239;56.820;24.416;2023-07-13T05:43:17;22.80;99.90
20158;DHT22;10239;56.820;24.416;2023-07-13T05:45:45;23.10;99.90
20158;DHT22;10239;56.820;24.416;2023-07-13T05:48:13;23.50;99.90
20158;DHT22;10239;56.820;24.416;2023-07-13T05:50:41;23.80;99.90
20158;DHT22;10239;56.820;24.416;2023-07-13T05:53:08;24.20;99.90
20158;DHT22;10239;56.820;24.416;2023-07-13T05:55:40;24.50;99.90
20158;DHT22;10239;56.820;24.416;2023-07-13T05:58:07;24.50;99.90
20158;DHT22;10239;56.820;24.416;2023-07-13T06:00:35;24.50;99.90
20158;DHT22;10239;56.820;24.416;2023-07-13T06:03:03;24.60;99.90
20158;DHT22;10239;56.820;24.416;2023-07-13T06:05:31;24.60;99.90
20158;DHT22;10239;56.820;24.416;2023-07-13T06:08:01;24.50;99.90
20158;DHT22;10239;56.820;24.416;2023-07-13T06:10:28;24.60;99.90
20158;DHT22;10239;56.820;24.416;2023-07-13T06:12:56;24.70;99.90
20158;DHT22;10239;56.820;24.416;2023-07-13T06:15:24;24.90;99.90
20158;DHT22;10239;56.820;24.416;2023-07-13T06:17:51;24.90;99.90
20158;DHT22;10239;56.820;24.416;2023-07-13T06:20:19;24.70;99.90
20158;DHT22;10239;56.820;24.416;2023-07-13T06:22:46;24.60;99.90
20158;DHT22;10239;56.820;24.416;2023-07-13T06:25:14;24.60;99.90
20158;DHT22;10239;56.820;24.416;2023-07-13T06:27:41;24.80;99.90
20158;DHT22;10239;56.820;24.416;2023-07-13T06:30:09;25.00;99.90
20158;DHT22;10239;56.820;24.416;2023-07-13T06:32:37;25.00;99.90
20158;DHT22;10239;56.820;24.416;2023-07-13T06:35:08;25.10;99.90
20158;DHT22;10239;56.820;24.416;2023-07-13T06:37:35;25.10;99.90
20158;DHT22;10239;56.820;24.416;2023-07-13T06:40:03;25.20;99.90
20158;DHT22;10239;56.820;24.416;2023-07-13T06:42:30;25.20;99.90
20158;DHT22;10239;56.820;24.416;2023-07-13T06:44:58;25.10;99.90
20158;DHT22;10239;56.820;24.416;2023-07-13T06:47:25;24.90;99.90
20158;DHT22;10239;56.820;24.416;2023-07-13T06:49:53;24.60;99.90
20158;DHT22;10239;56.820;24.416;2023-07-13T06:52:21;24.60;99.90
20158;DHT22;10239;56.820;24.416;2023-07-13T06:54:49;24.30;99.90
20158;DHT22;10239;56.820;24.416;2023-07-13T06:57:16;24.30;99.90
20158;DHT22;10239;56.820;24.416;2023-07-13T06:59:43;24.30;99.90
20158;DHT22;10239;56.820;24.416;2023-07-13T07:02:11;24.40;99.90
20158;DHT22;10239;56.820;24.416;2023-07-13T07:04:38;24.80;99.90
20158;DHT22;10239;56.820;24.416;2023-07-13T07:07:06;25.30;99.90
20158;DHT22;10239;56.820;24.416;2023-07-13T07:09:33;25.80;99.90
20158;DHT22;10239;56.820;24.416;2023-07-13T07:12:00;25.80;99.90
20158;DHT22;10239;56.820;24.416;2023-07-13T07:14:31;25.90;99.90
20158;DHT22;10239;56.820;24.416;2023-07-13T07:16:58;25.90;99.90
20158;DHT22;10239;56.820;24.416;2023-07-13T07:19:29;26.00;99.90
20158;DHT22;10239;56.820;24.416;2023-07-13T07:21:57;26.10;99.90
20158;DHT22;10239;56.820;24.416;2023-07-13T07:24:24;26.10;99.90
20158;DHT22;10239;56.820;24.416;2023-07-13T07:26:52;26.00;99.90
20158;DHT22;10239;56.820;24.416;2023-07-13T07:29:22;25.70;99.90
20158;DHT22;10239;56.820;24.416;2023-07-13T07:31:55;25.80;99.90
20158;DHT22;10239;56.820;24.416;2023-07-13T07:34:25;25.80;99.90
20158;DHT22;10239;56.820;24.416;2023-07-13T07:36:54;26.00;99.90
20158;DHT22;10239;56.820;24.416;2023-07-13T07:39:24;26.50;99.90
20158;DHT22;10239;56.820;24.416;2023-07-13T07:41:52;26.80;99.90
20158;DHT22;10239;56.820;24.416;2023-07-13T07:44:23;26.90;99.90
20158;DHT22;10239;56.820;24.416;2023-07-13T07:46:51;26.90;99.90
20158;DHT22;10239;56.820;24.416;2023-07-13T07:49:20;26.80;99.90
20158;DHT22;10239;56.820;24.416;2023-07-13T07:51:47;26.70;99.90
20158;DHT22;10239;56.820;24.416;2023-07-13T07:54:16;26.40;99.90
20158;DHT22;10239;56.820;24.416;2023-07-13T07:57:03;26.20;99.90
20158;DHT22;10239;56.820;24.416;2023-07-13T07:59:34;26.20;99.90
20158;DHT22;10239;56.820;24.416;2023-07-13T08:02:05;26.90;99.90
20158;DHT22;10239;56.820;24.416;2023-07-13T08:04:35;28.10;99.90
20158;DHT22;10239;56.820;24.416;2023-07-13T08:07:06;29.20;99.90
20158;DHT22;10239;56.820;24.416;2023-07-13T08:09:33;30.80;99.90
20158;DHT22;10239;56.820;24.416;2023-07-13T08:12:01;32.20;99.90
20158;DHT22;10239;56.820;24.416;2023-07-13T08:14:32;32.70;99.90
20158;DHT22;10239;56.820;24.416;2023-07-13T08:17:18;32.20;99.90
20158;DHT22;10239;56.820;24.416;2023-07-13T08:19:45;31.00;99.90
20158;DHT22;10239;56.820;24.416;2023-07-13T08:22:13;30.30;99.90
20158;DHT22;10239;56.820;24.416;2023-07-13T08:24:41;29.40;99.90
20158;DHT22;10239;56.820;24.416;2023-07-13T08:27:10;29.00;99.90
20158;DHT22;10239;56.820;24.416;2023-07-13T08:29:39;29.40;99.90
20158;DHT22;10239;56.820;24.416;2023-07-13T08:32:07;30.30;99.90
20158;DHT22;10239;56.820;24.416;2023-07-13T08:34:38;31.20;99.90
20158;DHT22;10239;56.820;24.416;2023-07-13T08:37:06;32.40;99.90
20158;DHT22;10239;56.820;24.416;2023-07-13T08:39:34;33.70;99.90
20158;DHT22;10239;56.820;24.416;2023-07-13T08:42:07;34.10;99.90
20158;DHT22;10239;56.820;24.416;2023-07-13T08:45:04;34.20;99.90
20158;DHT22;10239;56.820;24.416;2023-07-13T08:47:36;33.70;99.90
20158;DHT22;10239;56.820;24.416;2023-07-13T08:50:05;34.00;99.80
20158;DHT22;10239;56.820;24.416;2023-07-13T08:52:38;33.20;99.30
20158;DHT22;10239;56.820;24.416;2023-07-13T08:55:46;33.80;99.60
20158;DHT22;10239;56.820;24.416;2023-07-13T08:58:15;34.30;98.00
20158;DHT22;10239;56.820;24.416;2023-07-13T09:00:52;34.70;97.70
20158;DHT22;10239;56.820;24.416;2023-07-13T09:03:31;35.20;96.30
20158;DHT22;10239;56.820;24.416;2023-07-13T09:06:03;35.60;96.00
20158;DHT22;10239;56.820;24.416;2023-07-13T09:14:34;33.60;95.20
20158;DHT22;10239;56.820;24.416;2023-07-13T09:17:10;34.00;95.30
20158;DHT22;10239;56.820;24.416;2023-07-13T09:19:40;34.60;94.60
20158;DHT22;10239;56.820;24.416;2023-07-13T09:22:14;35.40;94.80
20158;DHT22;10239;56.820;24.416;2023-07-13T09:27:48;35.40;92.40
20158;DHT22;10239;56.820;24.416;2023-07-13T09:30:25;35.40;90.80
20158;DHT22;10239;56.820;24.416;2023-07-13T09:32:54;35.50;89.60
20158;DHT22;10239;56.820;24.416;2023-07-13T09:35:26;34.90;90.90
20158;DHT22;10239;56.820;24.416;2023-07-13T09:37:59;34.40;92.20
20158;DHT22;10239;56.820;24.416;2023-07-13T09:43:22;35.00;90.70
20158;DHT22;10239;56.820;24.416;2023-07-13T09:45:49;35.40;91.20
20158;DHT22;10239;56.820;24.416;2023-07-13T09:48:17;35.10;88.50
20158;DHT22;10239;56.820;24.416;2023-07-13T09:50:45;34.00;90.90
20158;DHT22;10239;56.820;24.416;2023-07-13T09:53:18;34.20;91.90
20158;DHT22;10239;56.820;24.416;2023-07-13T09:55:50;34.00;90.60
20158;DHT22;10239;56.820;24.416;2023-07-13T09:58:22;33.50;91.20
20158;DHT22;10239;56.820;24.416;2023-07-13T10:00:59;32.80;90.20
20158;DHT22;10239;56.820;24.416;2023-07-13T10:03:34;33.20;91.70
20158;DHT22;10239;56.820;24.416;2023-07-13T10:06:13;33.80;91.70
20158;DHT22;10239;56.820;24.416;2023-07-13T10:08:41;34.40;91.50
20158;DHT22;10239;56.820;24.416;2023-07-13T10:11:29;35.00;90.00
20158;DHT22;10239;56.820;24.416;2023-07-13T10:14:02;35.70;90.90
20158;DHT22;10239;56.820;24.416;2023-07-13T10:16:31;35.80;87.90
20158;DHT22;10239;56.820;24.416;2023-07-13T10:19:37;34.80;87.90
20158;DHT22;10239;56.820;24.416;2023-07-13T10:22:02;34.70;90.60
20158;DHT22;10239;56.820;24.416;2023-07-13T10:24:38;35.00;90.60
20158;DHT22;10239;56.820;24.416;2023-07-13T10:27:21;35.30;87.60
20158;DHT22;10239;56.820;24.416;2023-07-13T10:30:05;35.40;84.60
20158;DHT22;10239;56.820;24.416;2023-07-13T10:32:36;35.40;86.50
20158;DHT22;10239;56.820;24.416;2023-07-13T10:35:04;35.00;84.10
20158;DHT22;10239;56.820;24.416;2023-07-13T10:37:57;34.30;87.10
20158;DHT22;10239;56.820;24.416;2023-07-13T10:40:55;33.50;88.70
20158;DHT22;10239;56.820;24.416;2023-07-13T10:43:42;32.60;87.20
20158;DHT22;10239;56.820;24.416;2023-07-13T10:46:15;33.00;89.20
20158;DHT22;10239;56.820;24.416;2023-07-13T10:48:46;33.30;88.30
20158;DHT22;10239;56.820;24.416;2023-07-13T10:51:18;33.50;90.30
20158;DHT22;10239;56.820;24.416;2023-07-13T10:56:45;33.50;90.90
20158;DHT22;10239;56.820;24.416;2023-07-13T10:59:23;33.00;90.60
20158;DHT22;10239;56.820;24.416;2023-07-13T11:04:25;32.90;91.10
20158;DHT22;10239;56.820;24.416;2023-07-13T11:06:58;33.50;90.40
20158;DHT22;10239;56.820;24.416;2023-07-13T11:09:36;33.70;90.10
20158;DHT22;10239;56.820;24.416;2023-07-13T11:17:50;32.80;92.00
20158;DHT22;10239;56.820;24.416;2023-07-13T11:20:23;33.50;92.30
20158;DHT22;10239;56.820;24.416;2023-07-13T11:23:20;33.90;90.10
20158;DHT22;10239;56.820;24.416;2023-07-13T11:25:50;33.60;90.00
20158;DHT22;10239;56.820;24.416;2023-07-13T11:28:22;33.10;90.90
20158;DHT22;10239;56.820;24.416;2023-07-13T11:31:01;32.40;90.60
20158;DHT22;10239;56.820;24.416;2023-07-13T11:36:18;31.60;92.20
20158;DHT22;10239;56.820;24.416;2023-07-13T11:39:02;32.40;93.00
20158;DHT22;10239;56.820;24.416;2023-07-13T11:41:54;32.60;90.20
20158;DHT22;10239;56.820;24.416;2023-07-13T11:44:26;32.50;90.70
20158;DHT22;10239;56.820;24.416;2023-07-13T11:46:56;32.40;91.40
20158;DHT22;10239;56.820;24.416;2023-07-13T11:49:25;32.20;90.10
20158;DHT22;10239;56.820;24.416;2023-07-13T11:51:54;32.00;91.40
20158;DHT22;10239;56.820;24.416;2023-07-13T11:54:56;32.00;90.10
20158;DHT22;10239;56.820;24.416;2023-07-13T12:00:11;32.50;91.20
20158;DHT22;10239;56.820;24.416;2023-07-13T12:02:43;32.40;90.10
20158;DHT22;10239;56.820;24.416;2023-07-13T12:05:14;32.10;90.90
20158;DHT22;10239;56.820;24.416;2023-07-13T12:07:42;32.20;90.90
20158;DHT22;10239;56.820;24.416;2023-07-13T12:13:04;32.20;91.00
20158;DHT22;10239;56.820;24.416;2023-07-13T12:15:45;32.60;90.60
20158;DHT22;10239;56.820;24.416;2023-07-13T12:18:21;32.30;89.00
20158;DHT22;10239;56.820;24.416;2023-07-13T12:20:50;32.00;90.20
20158;DHT22;10239;56.820;24.416;2023-07-13T12:23:34;31.80;90.90
20158;DHT22;10239;56.820;24.416;2023-07-13T12:26:06;31.60;90.80
20158;DHT22;10239;56.820;24.416;2023-07-13T12:28:43;31.10;90.80
20158;DHT22;10239;56.820;24.416;2023-07-13T12:34:03;30.90;90.70
20158;DHT22;10239;56.820;24.416;2023-07-13T12:36:36;31.20;91.20
20158;DHT22;10239;56.820;24.416;2023-07-13T12:39:13;31.20;90.70
20158;DHT22;10239;56.820;24.416;2023-07-13T12:41:41;30.90;89.70
20158;DHT22;10239;56.820;24.416;2023-07-13T12:44:15;30.60;91.20
20158;DHT22;10239;56.820;24.416;2023-07-13T12:47:05;30.70;91.70
20158;DHT22;10239;56.820;24.416;2023-07-13T12:49:43;31.00;91.50
20158;DHT22;10239;56.820;24.416;2023-07-13T12:52:16;30.80;91.30
20158;DHT22;10239;56.820;24.416;2023-07-13T12:54:53;30.80;91.70
20158;DHT22;10239;56.820;24.416;2023-07-13T12:57:56;30.60;91.20
20158;DHT22;10239;56.820;24.416;2023-07-13T13:00:38;30.50;90.60
20158;DHT22;10239;56.820;24.416;2023-07-13T13:03:35;30.40;90.80
20158;DHT22;10239;56.820;24.416;2023-07-13T13:08:43;31.00;91.40
20158;DHT22;10239;56.820;24.416;2023-07-13T13:11:11;31.20;91.60
20158;DHT22;10239;56.820;24.416;2023-07-13T13:13:38;31.30;90.60
20158;DHT22;10239;56.820;24.416;2023-07-13T13:16:18;31.30;91.60
20158;DHT22;10239;56.820;24.416;2023-07-13T13:18:46;31.30;90.10
20158;DHT22;10239;56.820;24.416;2023-07-13T13:21:15;31.20;91.00
20158;DHT22;10239;56.820;24.416;2023-07-13T13:23:44;30.90;90.40
20158;DHT22;10239;56.820;24.416;2023-07-13T13:26:16;30.30;91.10
20158;DHT22;10239;56.820;24.416;2023-07-13T13:28:43;30.00;92.30
20158;DHT22;10239;56.820;24.416;2023-07-13T13:31:12;29.50;92.10
20158;DHT22;10239;56.820;24.416;2023-07-13T13:33:42;29.40;91.40
20158;DHT22;10239;56.820;24.416;2023-07-13T13:36:20;29.30;92.20
20158;DHT22;10239;56.820;24.416;2023-07-13T13:38:49;29.50;91.70
20158;DHT22;10239;56.820;24.416;2023-07-13T13:41:17;29.80;91.50
20158;DHT22;10239;56.820;24.416;2023-07-13T13:43:45;30.10;91.80
20158;DHT22;10239;56.820;24.416;2023-07-13T13:46:16;29.90;91.80
20158;DHT22;10239;56.820;24.416;2023-07-13T13:48:45;29.80;92.00
20158;DHT22;10239;56.820;24.416;2023-07-13T13:51:24;29.70;92.30
20158;DHT22;10239;56.820;24.416;2023-07-13T13:53:53;29.50;92.40
20158;DHT22;10239;56.820;24.416;2023-07-13T13:56:20;29.50;93.10
20158;DHT22;10239;56.820;24.416;2023-07-13T13:58:48;29.10;93.30
20158;DHT22;10239;56.820;24.416;2023-07-13T14:01:21;28.70;92.90
20158;DHT22;10239;56.820;24.416;2023-07-13T14:03:50;28.40;93.40
20158;DHT22;10239;56.820;24.416;2023-07-13T14:06:21;27.90;94.20
20158;DHT22;10239;56.820;24.416;2023-07-13T14:08:48;27.90;94.70
20158;DHT22;10239;56.820;24.416;2023-07-13T14:11:19;27.80;94.30
20158;DHT22;10239;56.820;24.416;2023-07-13T14:13:58;27.80;95.00
20158;DHT22;10239;56.820;24.416;2023-07-13T14:16:30;27.80;94.70
20158;DHT22;10239;56.820;24.416;2023-07-13T14:19:01;28.10;94.90
20158;DHT22;10239;56.820;24.416;2023-07-13T14:21:29;28.40;94.40
20158;DHT22;10239;56.820;24.416;2023-07-13T14:23:57;28.60;93.30
20158;DHT22;10239;56.820;24.416;2023-07-13T14:26:26;28.80;93.20
20158;DHT22;10239;56.820;24.416;2023-07-13T14:28:56;28.80;92.80
20158;DHT22;10239;56.820;24.416;2023-07-13T14:31:26;28.70;93.70
20158;DHT22;10239;56.820;24.416;2023-07-13T14:33:57;28.70;93.80
20158;DHT22;10239;56.820;24.416;2023-07-13T14:36:26;28.60;93.90
20158;DHT22;10239;56.820;24.416;2023-07-13T14:38:57;28.60;94.30
20158;DHT22;10239;56.820;24.416;2023-07-13T14:41:25;28.30;94.00
20158;DHT22;10239;56.820;24.416;2023-07-13T14:43:52;28.10;94.30
20158;DHT22;10239;56.820;24.416;2023-07-13T14:46:34;28.10;95.50
20158;DHT22;10239;56.820;24.416;2023-07-13T14:51:37;27.90;96.60
20158;DHT22;10239;56.820;24.416;2023-07-13T14:54:08;27.80;96.50
20158;DHT22;10239;56.820;24.416;2023-07-13T14:56:35;27.80;97.10
20158;DHT22;10239;56.820;24.416;2023-07-13T14:59:03;27.80;97.50
20158;DHT22;10239;56.820;24.416;2023-07-13T15:01:32;27.60;97.40
20158;DHT22;10239;56.820;24.416;2023-07-13T15:04:00;27.60;97.50
20158;DHT22;10239;56.820;24.416;2023-07-13T15:06:27;27.40;97.60
20158;DHT22;10239;56.820;24.416;2023-07-13T15:08:56;27.30;98.00
20158;DHT22;10239;56.820;24.416;2023-07-13T15:11:23;27.10;98.30
20158;DHT22;10239;56.820;24.416;2023-07-13T15:13:51;27.00;98.40
20158;DHT22;10239;56.820;24.416;2023-07-13T15:16:25;26.90;99.30
20158;DHT22;10239;56.820;24.416;2023-07-13T15:18:53;26.80;99.30
20158;DHT22;10239;56.820;24.416;2023-07-13T15:21:23;26.80;99.90
20158;DHT22;10239;56.820;24.416;2023-07-13T15:23:51;26.70;99.90
20158;DHT22;10239;56.820;24.416;2023-07-13T15:26:21;26.70;99.90
20158;DHT22;10239;56.820;24.416;2023-07-13T15:28:50;26.50;99.90
20158;DHT22;10239;56.820;24.416;2023-07-13T15:31:26;26.40;99.90
20158;DHT22;10239;56.820;24.416;2023-07-13T15:33:56;26.40;99.90
20158;DHT22;10239;56.820;24.416;2023-07-13T15:36:25;26.20;99.90
20158;DHT22;10239;56.820;24.416;2023-07-13T15:38:54;26.20;99.90
20158;DHT22;10239;56.820;24.416;2023-07-13T15:41:24;26.00;99.90
20158;DHT22;10239;56.820;24.416;2023-07-13T15:43:54;26.00;99.90
20158;DHT22;10239;56.820;24.416;2023-07-13T15:46:23;25.90;99.90
20158;DHT22;10239;56.820;24.416;2023-07-13T15:48:52;25.90;99.90
20158;DHT22;10239;56.820;24.416;2023-07-13T15:51:27;25.80;99.90
20158;DHT22;10239;56.820;24.416;2023-07-13T15:54:01;25.60;99.90
20158;DHT22;10239;56.820;24.416;2023-07-13T15:56:36;25.50;99.90
20158;DHT22;10239;56.820;24.416;2023-07-13T15:59:05;25.30;99.90
20158;DHT22;10239;56.820;24.416;2023-07-13T16:01:32;25.10;99.90
20158;DHT22;10239;56.820;24.416;2023-07-13T16:04:00;25.10;99.90
20158;DHT22;10239;56.820;24.416;2023-07-13T16:06:34;24.90;99.90
20158;DHT22;10239;56.820;24.416;2023-07-13T16:09:05;25.00;99.90
20158;DHT22;10239;56.820;24.416;2023-07-13T16:11:37;24.90;99.90
20158;DHT22;10239;56.820;24.416;2023-07-13T16:14:05;24.80;99.90
20158;DHT22;10239;56.820;24.416;2023-07-13T16:16:34;24.80;99.90
20158;DHT22;10239;56.820;24.416;2023-07-13T16:19:03;24.70;99.90
20158;DHT22;10239;56.820;24.416;2023-07-13T16:21:35;24.70;99.90